createdAt,value
2022-12-05T00:02:35.000Z,18.31
2022-12-05T00:07:35.000Z,15.71
2022-12-05T00:12:35.000Z,14.38
2022-12-05T00:17:34.000Z,14.3
2022-12-05T00:22:34.000Z,14.65
2022-12-05T00:27:34.000Z,13.76
2022-12-05T00:32:35.000Z,13.69
2022-12-05T00:37:35.000Z,14.24
2022-12-05T00:42:35.000Z,13.87
2022-12-05T00:47:35.000Z,14.48
2022-12-05T00:52:35.000Z,14.48
2022-12-05T00:57:34.000Z,13.96
2022-12-05T01:02:34.000Z,13.79
2022-12-05T01:07:35.000Z,14.15
2022-12-05T01:12:35.000Z,13.88
2022-12-05T01:17:34.000Z,14.2
2022-12-05T01:22:34.000Z,14.61
2022-12-05T01:27:34.000Z,13.3
2022-12-05T01:32:34.000Z,13.99
2022-12-05T01:37:35.000Z,13.46
2022-12-05T01:42:36.000Z,13.5
2022-12-05T01:47:34.000Z,13.71
2022-12-05T01:52:35.000Z,13.89
2022-12-05T01:57:34.000Z,14.04
2022-12-05T02:02:35.000Z,13.86
2022-12-05T02:07:35.000Z,13.86
2022-12-05T02:12:34.000Z,13.58
2022-12-05T02:17:35.000Z,13.8
2022-12-05T02:22:34.000Z,13.5
2022-12-05T02:27:34.000Z,13.78
2022-12-05T02:32:35.000Z,13.65
2022-12-05T02:37:34.000Z,13.27
2022-12-05T02:42:35.000Z,13.34
2022-12-05T02:47:34.000Z,13.65
2022-12-05T02:52:35.000Z,14.04
2022-12-05T02:57:34.000Z,13.67
2022-12-05T03:02:35.000Z,13.37
2022-12-05T03:07:34.000Z,13.68
2022-12-05T03:12:35.000Z,13.52
2022-12-05T03:17:35.000Z,13.9
2022-12-05T03:22:34.000Z,13.9
2022-12-05T03:27:35.000Z,14.09
2022-12-05T03:32:35.000Z,14.11
2022-12-05T03:37:35.000Z,14.16
2022-12-05T03:42:34.000Z,13.72
2022-12-05T03:47:35.000Z,14.26
2022-12-05T03:52:35.000Z,14.06
2022-12-05T03:57:35.000Z,14.23
2022-12-05T04:02:34.000Z,13.95
2022-12-05T04:07:35.000Z,14.72
2022-12-05T04:12:35.000Z,14.99
2022-12-05T04:17:35.000Z,15.46
2022-12-05T04:22:35.000Z,15.67
2022-12-05T04:27:34.000Z,15
2022-12-05T04:32:35.000Z,15.55
2022-12-05T04:37:35.000Z,15.55
2022-12-05T04:42:35.000Z,19.67
2022-12-05T04:47:34.000Z,22.66
2022-12-05T04:52:34.000Z,19.12
2022-12-05T04:57:35.000Z,16.82
2022-12-05T05:02:35.000Z,15.71
2022-12-05T05:07:35.000Z,15.38
2022-12-05T05:12:35.000Z,15.33
2022-12-05T05:17:35.000Z,15.01
2022-12-05T05:22:34.000Z,16.45
2022-12-05T05:27:35.000Z,15.59
2022-12-05T05:37:35.000Z,15.82
2022-12-05T05:42:35.000Z,17.01
2022-12-05T05:47:34.000Z,20.85
2022-12-05T05:52:34.000Z,23.74
2022-12-05T05:57:34.000Z,23.26
2022-12-05T06:02:34.000Z,23.26
2022-12-05T06:07:34.000Z,23.72
2022-12-05T06:12:35.000Z,21.97
2022-12-05T06:17:34.000Z,21.98
2022-12-05T06:22:35.000Z,21.79
2022-12-05T06:27:35.000Z,23.18
2022-12-05T06:32:35.000Z,21.09
2022-12-05T06:37:35.000Z,16.34
2022-12-05T06:42:34.000Z,16.26
2022-12-05T06:47:35.000Z,17.64
2022-12-05T06:52:35.000Z,19.41
2022-12-05T06:57:35.000Z,19.28
2022-12-05T07:02:34.000Z,19.28
2022-12-05T07:07:35.000Z,18.72
2022-12-05T07:12:34.000Z,18.55
2022-12-05T07:17:35.000Z,19.35
2022-12-05T07:22:34.000Z,19.35
2022-12-05T07:27:38.000Z,17.23
2022-12-05T07:32:35.000Z,18.17
2022-12-05T07:37:34.000Z,18.12
2022-12-05T07:42:34.000Z,16.84
2022-12-05T07:47:35.000Z,17.33
2022-12-05T07:52:34.000Z,17.44
2022-12-05T07:57:35.000Z,16.9
2022-12-05T08:02:34.000Z,16.23
2022-12-05T08:07:35.000Z,16.44
2022-12-05T08:12:35.000Z,16.44
2022-12-05T08:17:34.000Z,16.39
2022-12-05T08:22:35.000Z,16.41
2022-12-05T08:27:35.000Z,16.85
2022-12-05T08:32:35.000Z,16.12
2022-12-05T08:37:35.000Z,16.46
2022-12-05T08:42:34.000Z,16.52
2022-12-05T08:47:35.000Z,16.83
2022-12-05T08:52:35.000Z,16.72
2022-12-05T08:57:34.000Z,17.34
2022-12-05T09:02:35.000Z,16.87
2022-12-05T09:07:34.000Z,18.01
2022-12-05T09:12:35.000Z,18.3
2022-12-05T09:17:34.000Z,18.95
2022-12-05T09:22:34.000Z,18.4
2022-12-05T09:27:35.000Z,18.55
2022-12-05T09:32:35.000Z,18.55
2022-12-05T09:37:49.000Z,18.82
2022-12-05T09:42:34.000Z,19.64
2022-12-05T09:47:35.000Z,19.39
2022-12-05T09:52:35.000Z,19.35
2022-12-05T09:57:43.000Z,20.3
2022-12-05T10:02:34.000Z,19.96
2022-12-05T10:07:34.000Z,19.95
2022-12-05T10:12:35.000Z,19.67
2022-12-05T10:17:34.000Z,19.54
2022-12-05T10:22:34.000Z,20.01
2022-12-05T10:27:35.000Z,19.03
2022-12-05T10:32:34.000Z,19.3
2022-12-05T10:37:35.000Z,19.62
2022-12-05T10:47:35.000Z,19.05
2022-12-05T10:52:34.000Z,19.05
2022-12-05T10:57:34.000Z,19.36
2022-12-05T11:02:35.000Z,18.57
2022-12-05T11:07:35.000Z,18.67
2022-12-05T11:12:34.000Z,17.88
2022-12-05T11:17:35.000Z,16.74
2022-12-05T11:22:34.000Z,16.65
2022-12-05T11:27:35.000Z,16.02
2022-12-05T11:32:34.000Z,15.26
2022-12-05T11:37:35.000Z,14.83
2022-12-05T11:42:35.000Z,15.1
2022-12-05T11:47:34.000Z,14.41
2022-12-05T11:52:34.000Z,16.22
2022-12-05T11:57:34.000Z,15.86
2022-12-05T12:02:35.000Z,14.7
2022-12-05T12:07:35.000Z,14.7
2022-12-05T12:12:35.000Z,14.31
2022-12-05T12:17:35.000Z,14.41
2022-12-05T12:22:34.000Z,15.03
2022-12-05T12:27:35.000Z,14.77
2022-12-05T12:32:34.000Z,16.02
2022-12-05T12:37:34.000Z,16.47
2022-12-05T12:42:34.000Z,16.72
2022-12-05T12:47:35.000Z,15.65
2022-12-05T12:52:35.000Z,15.57
2022-12-05T12:57:34.000Z,15.03
2022-12-05T13:02:34.000Z,15.16
2022-12-05T13:07:35.000Z,15.13
2022-12-05T13:12:34.000Z,16.33
2022-12-05T13:17:35.000Z,16.33
2022-12-05T13:22:34.000Z,18.65
2022-12-05T13:27:35.000Z,18.99
2022-12-05T13:32:34.000Z,19.07
2022-12-05T13:37:35.000Z,17.59
2022-12-05T13:42:34.000Z,18.91
2022-12-05T13:47:35.000Z,18.58
2022-12-05T13:52:35.000Z,17.78
2022-12-05T13:57:35.000Z,16.64
2022-12-05T14:02:35.000Z,17.13
2022-12-05T14:07:34.000Z,16.88
2022-12-05T14:12:35.000Z,17.51
2022-12-05T14:17:34.000Z,16.17
2022-12-05T14:22:35.000Z,16.58
2022-12-05T14:27:34.000Z,16.28
2022-12-05T14:32:35.000Z,15.79
2022-12-05T14:42:35.000Z,16.07
2022-12-05T14:47:35.000Z,15.76
2022-12-05T14:52:34.000Z,15.75
2022-12-05T14:57:35.000Z,15.68
2022-12-05T15:02:35.000Z,15.26
2022-12-05T15:07:35.000Z,15.88
2022-12-05T15:12:34.000Z,16.19
2022-12-05T15:17:35.000Z,18.39
2022-12-05T15:22:35.000Z,16.13
2022-12-05T15:27:35.000Z,17.51
2022-12-05T15:32:34.000Z,17.41
2022-12-05T15:37:34.000Z,17.79
2022-12-05T15:42:40.000Z,17.79
2022-12-05T15:47:35.000Z,17.83
2022-12-05T15:52:34.000Z,17.6
2022-12-05T15:57:35.000Z,17.69
2022-12-05T16:02:35.000Z,17.16
2022-12-05T16:12:34.000Z,18.17
2022-12-05T16:17:35.000Z,18.71
2022-12-05T16:22:34.000Z,18.71
2022-12-05T16:27:35.000Z,18.67
2022-12-05T16:32:35.000Z,17.82
2022-12-05T16:37:34.000Z,18.62
2022-12-05T16:42:35.000Z,18.17
2022-12-05T16:47:35.000Z,17.99
2022-12-05T16:52:34.000Z,17.69
2022-12-05T16:57:35.000Z,17.62
2022-12-05T17:02:34.000Z,18.07
2022-12-05T17:07:41.000Z,18.13
2022-12-05T17:12:35.000Z,18.07
2022-12-05T17:17:34.000Z,18.13
2022-12-05T17:22:35.000Z,17.45
2022-12-05T17:27:35.000Z,17.17
2022-12-05T17:32:34.000Z,17.5
2022-12-05T17:37:35.000Z,17.5
2022-12-05T17:42:35.000Z,17.51
2022-12-05T17:47:34.000Z,17.52
2022-12-05T17:52:35.000Z,17.57
2022-12-05T17:57:35.000Z,16.43
2022-12-05T18:02:34.000Z,17.61
2022-12-05T18:07:35.000Z,16.74
2022-12-05T18:12:34.000Z,16.51
2022-12-05T18:17:35.000Z,16.82
2022-12-05T18:27:35.000Z,16.99
2022-12-05T18:32:34.000Z,16.92
2022-12-05T18:37:35.000Z,17.92
2022-12-05T18:42:34.000Z,18.48
2022-12-05T18:47:35.000Z,17.63
2022-12-05T18:57:35.000Z,17.41
2022-12-05T19:02:35.000Z,19.18
2022-12-05T19:07:35.000Z,18.13
2022-12-05T19:12:34.000Z,17.59
2022-12-05T19:17:35.000Z,16.93
2022-12-05T19:22:34.000Z,17.06
2022-12-05T19:27:35.000Z,17.52
2022-12-05T19:32:34.000Z,16.97
2022-12-05T19:37:35.000Z,18.09
2022-12-05T19:42:34.000Z,17.39
2022-12-05T19:47:35.000Z,18.19
2022-12-05T19:52:35.000Z,18.19
2022-12-05T19:57:41.000Z,17.72
2022-12-05T20:02:35.000Z,17.67
2022-12-05T20:07:34.000Z,18.05
2022-12-05T20:12:35.000Z,17.82
2022-12-05T20:17:35.000Z,16.66
2022-12-05T20:22:35.000Z,17.03
2022-12-05T20:27:35.000Z,16.12
2022-12-05T20:32:34.000Z,16.8
2022-12-05T20:37:35.000Z,16.43
2022-12-05T20:42:35.000Z,16.97
2022-12-05T20:47:35.000Z,16.72
2022-12-05T20:52:35.000Z,16.81
2022-12-05T20:57:35.000Z,16.57
2022-12-05T21:02:34.000Z,16.57
2022-12-05T21:07:35.000Z,16.59
2022-12-05T21:12:34.000Z,16.84
2022-12-05T21:17:35.000Z,16.8
2022-12-05T21:22:34.000Z,16.93
2022-12-05T21:27:35.000Z,15.86
2022-12-05T21:32:34.000Z,17.01
2022-12-05T21:37:35.000Z,16.63
2022-12-05T21:42:34.000Z,15.87
2022-12-05T21:52:34.000Z,15.06
2022-12-05T21:57:35.000Z,14.43
2022-12-05T22:02:35.000Z,14.29
2022-12-05T22:07:35.000Z,15.18
2022-12-05T22:12:34.000Z,14.81
2022-12-05T22:17:35.000Z,14.69
2022-12-05T22:22:34.000Z,14.69
2022-12-05T22:27:34.000Z,14.48
2022-12-05T22:32:35.000Z,14.05
2022-12-05T22:37:34.000Z,13.67
2022-12-05T22:42:35.000Z,13.81
2022-12-05T22:52:35.000Z,13.11
2022-12-05T22:57:35.000Z,13.89
2022-12-05T23:02:35.000Z,13.18
2022-12-05T23:07:35.000Z,13.77
2022-12-05T23:12:35.000Z,13.28
2022-12-05T23:17:34.000Z,14.2
2022-12-05T23:22:35.000Z,14.2
2022-12-05T23:27:34.000Z,13.78
2022-12-05T23:32:35.000Z,14.19
2022-12-05T23:37:34.000Z,15.58
2022-12-05T23:42:34.000Z,14.68
2022-12-05T23:47:35.000Z,14.16
2022-12-05T23:52:35.000Z,14.09
2022-12-05T23:57:35.000Z,13.95
